EST,Max TemperatureF,Mean TemperatureF,Min TemperatureF,Max Dew PointF,MeanDew PointF,Min DewpointF,Max Humidity, Mean Humidity, Min Humidity, Max Sea Level PressureIn, Mean Sea Level PressureIn, Min Sea Level PressureIn, Max VisibilityMiles, Mean VisibilityMiles, Min VisibilityMiles, Max Wind SpeedMPH, Mean Wind SpeedMPH, Max Gust SpeedMPH,PrecipitationIn, CloudCover, Events, WindDirDegrees
2013-2-1,39,30,21,26,11,1,64,42,25,30.34,30.17,29.87,10,10,10,17,9,25,0.00,1,,288
2013-2-2,40,28,17,34,16,8,86,55,29,30.35,30.19,30.01,10,10,4,14,3,26,0.00,3,Rain,214
2013-2-3,49,38,28,34,25,19,93,60,37,30.01,29.93,29.85,10,10,10,22,6,32,0.00,2,,255
2013-2-4,48,37,26,25,22,19,86,55,34,30.12,30.03,29.97,10,10,10,8,3,,0.00,0,,198
2013-2-5,60,46,33,34,29,25,81,56,33,29.97,29.93,29.89,10,10,10,10,3,10,0.00,4,,238
2013-2-6,60,45,30,31,24,16,93,47,19,30.23,30.11,29.97,10,10,10,12,3,17,0.00,0,,319
2013-2-7,41,38,36,36,31,23,97,78,49,30.30,30.19,30.02,10,7,2,13,8,20,0.33,4,Rain,26
2013-2-8,56,46,35,44,35,24,100,71,36,30.09,29.94,29.86,10,9,4,17,8,25,0.00,4,Rain,314
2013-2-9,54,40,26,27,21,15,93,52,21,30.33,30.23,30.09,10,10,7,8,3,,0.00,0,,268
2013-2-10,53,41,29,39,25,18,93,58,26,30.44,30.32,30.17,10,10,5,8,2,,0.12,2,Rain,125
2013-2-11,57,49,41,54,47,39,97,93,88,30.16,30.03,29.95,10,6,0,12,3,24,0.05,6,Fog-Rain,215
2013-2-12,56,46,35,48,32,22,97,56,27,30.10,30.01,29.92,10,9,0,8,2,,0.00,2,Fog-Rain,289
2013-2-13,46,42,37,43,40,32,97,91,68,29.93,29.77,29.65,10,6,1,8,2,,0.19,6,Rain,254
2013-2-14,50,39,28,32,30,27,100,70,42,30.05,29.99,29.86,10,10,5,12,3,20,0.00,0,,227
2013-2-15,59,42,26,36,30,25,100,62,30,30.08,30.00,29.92,10,9,5,13,3,21,0.00,3,,249
2013-2-16,43,34,26,31,25,12,95,68,47,29.97,29.92,29.83,10,9,0,10,6,17,0.01,5,Snow,357
2013-2-17,39,30,21,18,11,6,74,48,27,30.23,30.09,29.97,10,10,10,17,9,29,0.00,1,,279
2013-2-18,50,34,19,26,19,9,80,52,31,30.35,30.27,30.17,10,10,10,8,2,,0.00,0,,180
2013-2-19,47,40,34,41,30,14,96,69,36,30.19,30.00,29.86,10,9,3,13,6,20,0.07,4,Rain,217
2013-2-20,53,40,28,14,9,3,55,29,16,30.11,30.05,30.00,10,10,10,14,5,18,0.00,0,,274
2013-2-21,54,38,23,33,16,9,80,41,18,30.27,30.15,30.09,10,10,10,7,2,,0.01,1,Rain,79
2013-2-22,40,37,34,36,34,32,100,93,73,30.29,30.21,30.11,10,4,1,7,5,,0.17,8,Rain,42
2013-2-23,44,38,33,41,37,34,100,93,81,30.12,29.95,29.83,10,5,2,9,3,,0.05,8,Rain,11
2013-2-24,61,48,33,42,31,21,99,59,24,30.03,29.92,29.83,10,7,0,15,5,21,0.00,4,Fog,273
2013-2-25,41,37,33,29,25,23,78,60,53,30.19,30.10,30.02,10,10,10,9,6,,0.00,1,,48
2013-2-26,38,34,30,38,33,23,100,93,58,30.09,29.77,29.58,10,4,0,14,8,21,0.44,8,Fog-Rain,21
2013-2-27,55,46,36,38,35,32,99,74,45,29.79,29.72,29.65,10,8,1,12,5,17,0.00,4,,228
2013-2-28,48,41,34,31,26,24,75,58,43,29.88,29.78,29.71,10,10,10,15,7,24,0.00,3,,279